createdAt,value
2019-03-28T00:02:05.712Z,43.70
2019-03-28T00:04:34.131Z,49.83
2019-03-28T00:07:02.571Z,52.07
2019-03-28T00:09:30.992Z,53.03
2019-03-28T00:11:59.432Z,48.70
2019-03-28T00:14:27.853Z,52.37
2019-03-28T00:16:56.306Z,47.87
2019-03-28T00:19:24.724Z,52.00
2019-03-28T00:21:53.164Z,58.13
2019-03-28T00:24:23.217Z,53.37
2019-03-28T00:26:51.689Z,56.17
2019-03-28T00:29:20.103Z,48.97
2019-03-28T00:31:48.686Z,50.50
2019-03-28T00:34:17.131Z,52.90
2019-03-28T00:36:45.543Z,46.20
2019-03-28T00:39:13.983Z,52.87
2019-03-28T00:41:42.410Z,49.30
2019-03-28T00:44:10.852Z,58.83
2019-03-28T00:46:39.268Z,52.93
2019-03-28T00:49:07.724Z,51.93
2019-03-28T00:51:36.138Z,56.23
2019-03-28T00:54:04.748Z,54.00
2019-03-28T00:56:44.786Z,56.17
2019-03-28T00:59:03.346Z,57.00
2019-03-28T01:01:31.916Z,58.80
2019-03-28T01:04:00.343Z,60.87
2019-03-28T01:06:28.829Z,51.67
2019-03-28T01:08:57.278Z,54.40
2019-03-28T01:11:25.688Z,50.73
2019-03-28T01:13:54.132Z,49.37
2019-03-28T01:16:22.554Z,50.57
2019-03-28T01:18:51.000Z,53.80
2019-03-28T01:21:19.421Z,54.60
2019-03-28T01:23:47.863Z,53.00
2019-03-28T01:26:16.273Z,49.87
2019-03-28T01:28:44.701Z,53.50
2019-03-28T01:31:13.191Z,49.27
2019-03-28T01:33:41.631Z,48.00
2019-03-28T01:36:10.048Z,54.77
2019-03-28T01:38:38.475Z,51.40
2019-03-28T01:41:06.918Z,51.17
2019-03-28T01:43:35.333Z,50.40
2019-03-28T01:46:03.779Z,54.07
2019-03-28T01:48:32.191Z,53.50
2019-03-28T01:51:00.637Z,55.90
2019-03-28T01:53:29.052Z,54.97
2019-03-28T01:55:57.499Z,56.33
2019-03-28T01:58:25.909Z,56.27
2019-03-28T02:00:57.499Z,54.73
2019-03-28T02:03:25.916Z,66.30
2019-03-28T02:05:54.362Z,56.57
2019-03-28T02:08:24.902Z,57.90
2019-03-28T02:10:52.943Z,58.47
2019-03-28T02:13:22.213Z,55.67
2019-03-28T02:15:50.846Z,64.43
2019-03-28T02:18:19.262Z,72.10
2019-03-28T02:20:47.709Z,56.63
2019-03-28T02:23:16.136Z,54.83
2019-03-28T02:25:44.585Z,66.93
2019-03-28T02:28:12.994Z,60.83
2019-03-28T02:30:41.441Z,60.30
2019-03-28T02:33:09.853Z,61.20
2019-03-28T02:35:44.050Z,63.40
2019-03-28T02:38:12.461Z,58.67
2019-03-28T02:40:40.918Z,59.13
2019-03-28T02:43:09.342Z,64.03
2019-03-28T02:45:37.786Z,60.30
2019-03-28T02:48:06.281Z,52.37
2019-03-28T02:50:34.714Z,49.93
2019-03-28T02:53:03.136Z,62.90
2019-03-28T02:55:31.577Z,57.20
2019-03-28T02:57:59.995Z,57.47
2019-03-28T03:00:28.439Z,58.83
2019-03-28T03:02:56.858Z,58.40
2019-03-28T03:05:25.374Z,61.00
2019-03-28T03:07:53.864Z,61.03
2019-03-28T03:10:22.374Z,61.30
2019-03-28T03:12:50.784Z,58.53
2019-03-28T03:15:19.301Z,61.43
2019-03-28T03:17:47.714Z,52.27
2019-03-28T03:20:16.231Z,57.53
2019-03-28T03:22:44.719Z,59.43
2019-03-28T03:25:14.711Z,54.37
2019-03-28T03:27:57.172Z,62.00
2019-03-28T03:30:13.659Z,61.27
2019-03-28T03:32:42.218Z,57.13
2019-03-28T03:35:11.151Z,62.43
2019-03-28T03:37:39.589Z,53.43
2019-03-28T03:40:09.717Z,57.73
2019-03-28T03:42:38.161Z,58.33
2019-03-28T03:45:09.004Z,50.50
2019-03-28T03:47:37.969Z,52.03
2019-03-28T03:50:06.755Z,59.80
2019-03-28T03:52:35.201Z,50.07
2019-03-28T03:55:04.292Z,56.00
2019-03-28T03:57:32.733Z,63.30
2019-03-28T04:00:01.141Z,44.37
2019-03-28T04:02:29.591Z,57.33
2019-03-28T04:04:57.997Z,59.83
2019-03-28T04:07:26.437Z,46.37
2019-03-28T04:09:54.855Z,57.83
2019-03-28T04:12:23.373Z,59.23
2019-03-28T04:14:51.794Z,60.97
2019-03-28T04:17:20.239Z,60.20
2019-03-28T04:19:48.657Z,56.50
2019-03-28T04:22:17.094Z,61.00
2019-03-28T04:24:45.514Z,53.77
2019-03-28T04:27:13.967Z,59.70
2019-03-28T04:29:42.375Z,60.23
2019-03-28T04:32:10.832Z,52.83
2019-03-28T04:34:39.252Z,65.80
2019-03-28T04:37:07.696Z,63.30
2019-03-28T04:39:36.117Z,60.23
2019-03-28T04:42:04.566Z,54.63
2019-03-28T04:44:32.980Z,54.67
2019-03-28T04:47:01.430Z,55.03
2019-03-28T04:49:29.854Z,55.93
2019-03-28T04:51:58.301Z,54.30
2019-03-28T04:54:26.726Z,55.50
2019-03-28T04:56:55.170Z,59.00
2019-03-28T04:59:23.666Z,55.80
2019-03-28T05:02:02.469Z,73.73
2019-03-28T05:04:22.237Z,61.87
2019-03-28T05:06:50.677Z,64.23
2019-03-28T05:09:19.094Z,61.07
2019-03-28T05:11:47.505Z,56.80
2019-03-28T05:14:15.951Z,52.23
2019-03-28T05:16:44.371Z,84.57
2019-03-28T05:19:12.810Z,61.33
2019-03-28T05:21:41.229Z,71.20
2019-03-28T05:24:09.674Z,60.73
2019-03-28T05:26:38.098Z,60.00
2019-03-28T05:29:06.545Z,58.10
2019-03-28T05:31:34.955Z,53.80
2019-03-28T05:34:03.405Z,62.47
2019-03-28T05:36:31.821Z,59.73
2019-03-28T05:39:00.272Z,53.17
2019-03-28T05:41:28.685Z,59.77
2019-03-28T05:43:57.123Z,69.00
2019-03-28T05:46:25.568Z,65.40
2019-03-28T05:48:54.053Z,59.00
2019-03-28T05:51:22.473Z,63.93
2019-03-28T05:53:50.913Z,62.53
2019-03-28T05:56:19.334Z,78.83
2019-03-28T05:58:47.777Z,58.50
2019-03-28T06:01:16.191Z,57.00
2019-03-28T06:03:44.626Z,55.00
2019-03-28T06:06:13.055Z,60.07
2019-03-28T06:08:41.503Z,62.93
2019-03-28T06:11:09.919Z,65.00
2019-03-28T06:13:38.362Z,57.50
2019-03-28T06:16:06.787Z,58.87
2019-03-28T06:18:35.227Z,56.03
2019-03-28T06:21:03.642Z,55.97
2019-03-28T06:23:32.087Z,60.00
2019-03-28T06:26:00.502Z,55.80
2019-03-28T06:28:28.957Z,54.10
2019-03-28T06:30:57.391Z,55.33
2019-03-28T06:33:25.792Z,59.73
2019-03-28T06:35:54.310Z,59.37
2019-03-28T06:38:22.726Z,64.87
2019-03-28T06:40:51.171Z,56.10
2019-03-28T06:43:19.587Z,63.00
2019-03-28T06:45:48.027Z,54.87
2019-03-28T06:48:16.525Z,54.43
2019-03-28T06:50:44.973Z,54.40
2019-03-28T06:53:13.387Z,50.83
2019-03-28T06:55:41.838Z,54.57
2019-03-28T06:58:10.242Z,61.67
2019-03-28T07:00:38.685Z,58.50
2019-03-28T07:03:07.105Z,53.33
2019-03-28T07:05:35.546Z,55.50
2019-03-28T07:08:03.959Z,58.00
2019-03-28T07:10:32.402Z,61.40
2019-03-28T07:13:00.888Z,56.83
2019-03-28T07:15:29.406Z,60.90
2019-03-28T07:17:57.813Z,56.37
2019-03-28T07:20:26.427Z,54.17
2019-03-28T07:22:55.054Z,59.73
2019-03-28T07:25:25.559Z,54.20
2019-03-28T07:27:53.627Z,49.80
2019-03-28T07:30:22.211Z,58.03
2019-03-28T07:32:50.625Z,60.20
2019-03-28T07:35:19.102Z,58.47
2019-03-28T07:37:47.519Z,60.53
2019-03-28T07:40:16.078Z,56.00
2019-03-28T07:42:44.528Z,60.77
2019-03-28T07:45:14.286Z,60.67
2019-03-28T07:47:42.723Z,68.30
2019-03-28T07:50:11.690Z,65.03
2019-03-28T07:52:40.476Z,63.63
2019-03-28T07:55:09.263Z,66.57
2019-03-28T07:57:37.708Z,55.00
2019-03-28T08:00:09.131Z,58.57
2019-03-28T08:02:37.668Z,50.70
2019-03-28T08:05:08.243Z,58.30
2019-03-28T08:07:44.898Z,51.50
2019-03-28T08:10:07.603Z,51.90
2019-03-28T08:12:36.050Z,47.10
2019-03-28T08:15:08.866Z,51.73
2019-03-28T08:17:37.306Z,52.93
2019-03-28T08:20:08.426Z,47.50
2019-03-28T08:22:36.867Z,51.40
2019-03-28T08:25:11.352Z,54.63
2019-03-28T08:27:37.863Z,50.10
2019-03-28T08:30:18.319Z,50.37
2019-03-28T08:32:39.965Z,44.77
2019-03-28T08:35:08.937Z,45.40
2019-03-28T08:37:37.746Z,41.90
2019-03-28T08:40:08.504Z,50.27
2019-03-28T08:42:36.942Z,44.03
2019-03-28T08:45:09.600Z,41.17
2019-03-28T08:47:38.117Z,46.07
2019-03-28T08:50:07.455Z,46.50
2019-03-28T08:52:35.968Z,46.70
2019-03-28T08:55:09.817Z,45.33
2019-03-28T08:57:36.680Z,40.97
2019-03-28T09:00:07.779Z,43.07
2019-03-28T09:02:36.289Z,38.97
2019-03-28T09:05:05.737Z,45.53
2019-03-28T09:07:34.180Z,38.33
2019-03-28T09:10:02.598Z,38.97
2019-03-28T09:12:31.041Z,40.63
2019-03-28T09:14:59.453Z,44.50
2019-03-28T09:17:27.897Z,39.83
2019-03-28T09:19:56.313Z,39.07
2019-03-28T09:22:24.817Z,43.00
2019-03-28T09:24:53.239Z,41.80
2019-03-28T09:27:21.658Z,40.10
2019-03-28T09:29:50.103Z,50.90
2019-03-28T09:32:18.519Z,47.63
2019-03-28T09:34:46.965Z,50.07
2019-03-28T09:37:15.393Z,52.67
2019-03-28T09:39:43.828Z,45.43
2019-03-28T09:42:12.237Z,43.93
2019-03-28T09:44:40.673Z,41.47
2019-03-28T09:47:09.082Z,45.00
2019-03-28T09:49:38.470Z,46.60
2019-03-28T09:52:06.952Z,50.97
2019-03-28T09:54:35.396Z,52.60
2019-03-28T09:57:03.825Z,49.80
2019-03-28T09:59:32.329Z,54.00
2019-03-28T10:02:01.401Z,47.20
2019-03-28T10:04:30.468Z,39.03
2019-03-28T10:06:58.880Z,42.90
2019-03-28T10:09:27.317Z,44.23
2019-03-28T10:11:55.730Z,45.80
2019-03-28T10:14:24.168Z,45.10
2019-03-28T10:16:52.650Z,47.33
2019-03-28T10:19:21.092Z,45.77
2019-03-28T10:21:49.502Z,41.00
2019-03-28T10:24:17.940Z,46.70
2019-03-28T10:26:46.353Z,46.53
2019-03-28T10:29:14.797Z,68.80
2019-03-28T10:31:43.209Z,42.40
2019-03-28T10:34:11.649Z,43.97
2019-03-28T10:36:40.061Z,40.13
2019-03-28T10:39:09.074Z,39.97
2019-03-28T10:41:39.824Z,40.27
2019-03-28T10:44:07.656Z,45.87
2019-03-28T10:46:36.134Z,43.53
2019-03-28T10:49:04.652Z,40.23
2019-03-28T10:51:33.071Z,36.30
2019-03-28T10:54:01.516Z,40.70
2019-03-28T10:56:29.936Z,43.27
2019-03-28T10:58:58.378Z,46.80
2019-03-28T11:01:47.054Z,41.90
2019-03-28T11:03:56.953Z,39.50
2019-03-28T11:06:25.439Z,43.70
2019-03-28T11:08:53.875Z,40.93
2019-03-28T11:11:22.599Z,46.23
2019-03-28T11:13:51.207Z,41.97
2019-03-28T11:16:19.637Z,37.43
2019-03-28T11:18:48.084Z,43.23
2019-03-28T11:21:16.509Z,42.23
2019-03-28T11:23:44.945Z,42.60
2019-03-28T11:26:13.366Z,41.83
2019-03-28T11:28:42.267Z,46.10
2019-03-28T11:31:10.801Z,47.10
2019-03-28T11:33:39.219Z,40.77
2019-03-28T11:36:07.726Z,46.53
2019-03-28T11:38:36.137Z,49.10
2019-03-28T11:41:04.588Z,46.10
2019-03-28T11:43:33.006Z,44.73
2019-03-28T11:46:01.518Z,49.23
2019-03-28T11:48:29.926Z,45.63
2019-03-28T11:50:58.368Z,46.93
2019-03-28T11:53:26.773Z,44.23
2019-03-28T11:55:55.216Z,43.80
2019-03-28T11:58:23.623Z,45.57
2019-03-28T12:00:52.062Z,45.23
2019-03-28T12:03:20.532Z,42.40
2019-03-28T12:05:48.984Z,48.90
2019-03-28T12:08:17.398Z,47.37
2019-03-28T12:10:45.849Z,48.37
2019-03-28T12:13:14.254Z,47.97
2019-03-28T12:15:42.699Z,45.63
2019-03-28T12:18:11.111Z,45.20
2019-03-28T12:20:39.542Z,46.27
2019-03-28T12:23:07.947Z,47.73
2019-03-28T12:25:36.399Z,42.77
2019-03-28T12:28:04.883Z,40.70
2019-03-28T12:30:33.324Z,44.63
2019-03-28T12:33:01.805Z,39.30
2019-03-28T12:35:30.248Z,40.17
2019-03-28T12:37:58.679Z,44.10
2019-03-28T12:40:27.120Z,44.13
2019-03-28T12:42:55.530Z,42.47
2019-03-28T12:45:24.050Z,42.60
2019-03-28T12:47:52.469Z,40.80
2019-03-28T12:50:20.983Z,43.27
2019-03-28T12:52:49.394Z,39.83
2019-03-28T12:55:17.840Z,36.07
2019-03-28T12:57:48.348Z,42.10
2019-03-28T13:00:18.524Z,43.70
2019-03-28T13:02:46.938Z,38.63
2019-03-28T13:05:15.591Z,40.40
2019-03-28T13:07:44.037Z,40.00
2019-03-28T13:10:12.990Z,37.40
2019-03-28T13:12:41.438Z,36.70
2019-03-28T13:15:10.090Z,38.17
2019-03-28T13:17:38.534Z,42.70
2019-03-28T13:20:08.691Z,40.90
2019-03-28T13:22:37.204Z,39.70
2019-03-28T13:25:07.551Z,39.53
2019-03-28T13:27:36.707Z,37.50
2019-03-28T13:30:09.239Z,36.50
2019-03-28T13:32:42.053Z,41.37
2019-03-28T13:35:08.053Z,36.50
2019-03-28T13:37:36.502Z,38.17
2019-03-28T13:40:08.118Z,42.33
2019-03-28T13:42:37.374Z,40.53
2019-03-28T13:45:08.165Z,44.77
2019-03-28T13:47:36.615Z,41.03
2019-03-28T13:50:09.668Z,38.13
2019-03-28T13:52:38.185Z,39.37
2019-03-28T13:55:07.443Z,40.83
2019-03-28T13:57:35.961Z,38.33
2019-03-28T14:00:06.178Z,39.27
2019-03-28T14:02:34.621Z,45.93
2019-03-28T14:05:03.112Z,41.90
2019-03-28T14:07:31.551Z,41.20
2019-03-28T14:09:59.966Z,39.77
2019-03-28T14:12:28.408Z,41.00
2019-03-28T14:14:56.832Z,38.30
2019-03-28T14:17:25.273Z,38.20
2019-03-28T14:19:53.697Z,39.67
2019-03-28T14:22:22.147Z,47.40
2019-03-28T14:24:50.574Z,38.73
2019-03-28T14:27:19.015Z,38.30
2019-03-28T14:29:47.429Z,39.23
2019-03-28T14:32:15.847Z,38.20
2019-03-28T14:34:44.286Z,39.67
2019-03-28T14:37:12.734Z,37.97
2019-03-28T14:39:41.148Z,42.33
2019-03-28T14:42:09.569Z,38.47
2019-03-28T14:44:38.011Z,40.53
2019-03-28T14:47:06.430Z,38.07
2019-03-28T14:49:34.990Z,37.53
2019-03-28T14:52:04.140Z,38.10
2019-03-28T14:54:32.723Z,38.00
2019-03-28T14:57:01.219Z,38.40
2019-03-28T14:59:32.732Z,38.50
2019-03-28T15:01:59.806Z,39.00
2019-03-28T15:04:28.248Z,35.60
2019-03-28T15:06:56.669Z,37.37
2019-03-28T15:09:25.128Z,38.83
2019-03-28T15:11:53.538Z,35.20
2019-03-28T15:14:21.984Z,39.60
2019-03-28T15:16:50.403Z,38.33
2019-03-28T15:19:18.855Z,37.80
2019-03-28T15:21:47.269Z,38.53
2019-03-28T15:24:15.710Z,39.27
2019-03-28T15:26:44.327Z,38.00
2019-03-28T15:29:12.856Z,36.40
2019-03-28T15:31:41.277Z,36.17
2019-03-28T15:34:09.722Z,38.30
2019-03-28T15:36:38.148Z,36.60
2019-03-28T15:39:08.333Z,38.77
2019-03-28T15:41:37.156Z,38.47
2019-03-28T15:44:05.559Z,38.70
2019-03-28T15:46:33.978Z,39.10
2019-03-28T15:49:02.429Z,38.43
2019-03-28T15:51:30.842Z,38.30
2019-03-28T15:53:59.263Z,37.50
2019-03-28T15:56:27.710Z,40.77
2019-03-28T15:58:56.126Z,38.50
2019-03-28T16:01:24.632Z,38.67
2019-03-28T16:03:53.616Z,38.23
2019-03-28T16:06:22.565Z,37.50
2019-03-28T16:08:51.137Z,37.93
2019-03-28T16:11:19.577Z,37.03
2019-03-28T16:13:48.004Z,37.70
2019-03-28T16:16:16.452Z,39.20
2019-03-28T16:18:44.864Z,39.67
2019-03-28T16:21:13.374Z,38.07
2019-03-28T16:23:41.790Z,38.70
2019-03-28T16:26:10.237Z,41.67
2019-03-28T16:28:38.658Z,39.60
2019-03-28T16:31:07.105Z,41.43
2019-03-28T16:33:35.587Z,38.60
2019-03-28T16:36:04.031Z,48.27
2019-03-28T16:38:32.949Z,39.43
2019-03-28T16:41:01.569Z,40.70
2019-03-28T16:43:30.053Z,42.40
2019-03-28T16:45:58.495Z,37.50
2019-03-28T16:48:26.911Z,40.83
2019-03-28T16:50:55.352Z,39.97
2019-03-28T16:53:23.829Z,37.60
2019-03-28T16:55:52.338Z,37.77
2019-03-28T16:58:20.750Z,40.73
2019-03-28T17:00:49.193Z,44.77
2019-03-28T17:03:17.681Z,40.70
2019-03-28T17:05:47.256Z,44.37
2019-03-28T17:08:17.698Z,42.87
2019-03-28T17:10:48.121Z,42.07
2019-03-28T17:13:16.680Z,45.57
2019-03-28T17:15:45.312Z,44.67
2019-03-28T17:18:13.764Z,49.30
2019-03-28T17:20:42.312Z,43.50
2019-03-28T17:23:10.822Z,47.43
2019-03-28T17:25:39.236Z,43.63
2019-03-28T17:28:07.674Z,46.30
2019-03-28T17:30:36.091Z,45.30
2019-03-28T17:33:05.343Z,42.30
2019-03-28T17:35:34.460Z,45.60
2019-03-28T17:38:02.902Z,44.53
2019-03-28T17:40:31.386Z,48.73
2019-03-28T17:42:59.821Z,50.73
2019-03-28T17:45:28.238Z,45.63
2019-03-28T17:47:56.686Z,47.77
2019-03-28T17:50:25.104Z,49.57
2019-03-28T17:52:53.763Z,45.77
2019-03-28T17:55:22.347Z,48.70
2019-03-28T17:57:50.795Z,51.23
2019-03-28T18:00:19.383Z,45.93
2019-03-28T18:02:47.830Z,47.37
2019-03-28T18:05:16.314Z,48.83
2019-03-28T18:07:44.761Z,47.83
2019-03-28T18:10:13.720Z,47.73
2019-03-28T18:12:42.160Z,45.10
2019-03-28T18:15:10.910Z,45.10
2019-03-28T18:17:39.370Z,43.67
2019-03-28T18:20:08.001Z,44.63
2019-03-28T18:22:36.587Z,46.33
2019-03-28T18:25:07.808Z,43.83
2019-03-28T18:27:36.512Z,44.90
2019-03-28T18:30:08.508Z,43.70
2019-03-28T18:32:39.395Z,45.63
2019-03-28T18:35:08.719Z,46.37
2019-03-28T18:37:37.167Z,46.67
2019-03-28T18:40:08.639Z,49.30
2019-03-28T18:42:37.157Z,49.30
2019-03-28T18:45:07.767Z,50.57
2019-03-28T18:47:36.551Z,58.23
2019-03-28T18:50:06.353Z,51.13
2019-03-28T18:52:34.839Z,57.10
2019-03-28T18:55:03.949Z,54.80
2019-03-28T18:57:32.364Z,55.60
2019-03-28T19:00:00.818Z,57.73
2019-03-28T19:02:29.230Z,51.23
2019-03-28T19:04:57.686Z,50.57
2019-03-28T19:07:26.183Z,56.50
2019-03-28T19:09:54.629Z,56.00
2019-03-28T19:12:23.053Z,49.57
2019-03-28T19:14:51.503Z,51.50
2019-03-28T19:17:19.911Z,48.00
2019-03-28T19:19:48.354Z,46.53
2019-03-28T19:22:16.770Z,46.13
2019-03-28T19:24:45.210Z,48.97
2019-03-28T19:27:13.695Z,46.17
2019-03-28T19:29:42.142Z,49.60
2019-03-28T19:32:10.943Z,45.77
2019-03-28T19:34:39.393Z,49.60
2019-03-28T19:37:07.890Z,51.70
2019-03-28T19:39:36.706Z,54.77
2019-03-28T19:42:05.360Z,52.23
2019-03-28T19:44:33.806Z,52.20
2019-03-28T19:47:02.226Z,53.73
2019-03-28T19:49:30.679Z,50.53
2019-03-28T19:51:59.973Z,51.40
2019-03-28T19:54:28.515Z,54.00
2019-03-28T19:56:57.451Z,52.87
2019-03-28T19:59:26.222Z,55.20
2019-03-28T20:01:54.626Z,53.20
2019-03-28T20:04:23.138Z,52.77
2019-03-28T20:06:51.549Z,51.90
2019-03-28T20:09:19.997Z,55.30
2019-03-28T20:11:48.427Z,56.27
2019-03-28T20:14:16.850Z,52.90
2019-03-28T20:16:45.297Z,57.63
2019-03-28T20:19:13.718Z,52.23
2019-03-28T20:21:42.162Z,56.57
2019-03-28T20:24:10.592Z,58.87
2019-03-28T20:26:39.031Z,51.30
2019-03-28T20:29:08.713Z,57.50
2019-03-28T20:31:37.365Z,53.90
2019-03-28T20:34:05.786Z,55.10
2019-03-28T20:36:38.639Z,63.00
2019-03-28T20:39:07.295Z,62.20
2019-03-28T20:41:35.745Z,62.10
2019-03-28T20:44:04.309Z,62.07
2019-03-28T20:46:32.750Z,63.80
2019-03-28T20:49:01.168Z,62.97
2019-03-28T20:51:29.609Z,64.67
2019-03-28T20:53:58.060Z,62.93
2019-03-28T20:56:26.517Z,64.87
2019-03-28T20:58:55.036Z,65.93
2019-03-28T21:01:23.653Z,65.90
2019-03-28T21:03:52.145Z,62.97
2019-03-28T21:06:20.723Z,64.13
2019-03-28T21:08:49.202Z,68.67
2019-03-28T21:11:17.651Z,63.27
2019-03-28T21:13:46.071Z,72.10
2019-03-28T21:16:14.603Z,69.80
2019-03-28T21:18:43.004Z,66.93
2019-03-28T21:21:11.450Z,67.00
2019-03-28T21:23:39.949Z,70.80
2019-03-28T21:26:08.394Z,69.30
2019-03-28T21:28:47.214Z,70.67
2019-03-28T21:31:07.109Z,71.80
2019-03-28T21:33:35.635Z,72.10
2019-03-28T21:36:04.267Z,72.83
2019-03-28T21:38:33.384Z,68.47
2019-03-28T21:41:01.795Z,67.90
2019-03-28T21:43:31.130Z,69.27
2019-03-28T21:45:59.639Z,68.37
2019-03-28T21:48:28.082Z,69.00
2019-03-28T21:50:56.544Z,69.93
2019-03-28T21:53:24.995Z,66.77
2019-03-28T21:55:55.442Z,67.40
2019-03-28T21:58:23.661Z,68.93
2019-03-28T22:00:52.078Z,62.33
2019-03-28T22:03:20.527Z,58.03
2019-03-28T22:05:48.944Z,63.23
2019-03-28T22:08:17.392Z,55.73
2019-03-28T22:10:45.880Z,59.17
2019-03-28T22:13:14.328Z,60.27
2019-03-28T22:15:42.748Z,59.60
2019-03-28T22:18:11.181Z,58.57
2019-03-28T22:20:39.599Z,55.63
2019-03-28T22:23:08.042Z,57.10
2019-03-28T22:25:36.524Z,53.87
2019-03-28T22:28:04.979Z,59.13
2019-03-28T22:30:33.409Z,58.97
2019-03-28T22:33:01.829Z,55.23
2019-03-28T22:35:30.262Z,56.40
2019-03-28T22:37:58.692Z,53.03
2019-03-28T22:40:27.134Z,50.83
2019-03-28T22:42:55.544Z,46.20
2019-03-28T22:45:24.065Z,53.57
2019-03-28T22:47:52.466Z,52.80
2019-03-28T22:50:20.908Z,51.30
2019-03-28T22:52:49.317Z,49.07
2019-03-28T22:55:17.827Z,48.33
2019-03-28T22:57:46.253Z,53.83
2019-03-28T23:00:15.448Z,49.63
2019-03-28T23:02:43.992Z,46.23
2019-03-28T23:05:12.766Z,47.73
2019-03-28T23:07:41.219Z,46.90
2019-03-28T23:10:10.132Z,50.57
2019-03-28T23:12:38.545Z,49.27
2019-03-28T23:15:08.073Z,44.70
2019-03-28T23:17:36.483Z,46.10
2019-03-28T23:20:07.871Z,52.73
2019-03-28T23:22:36.395Z,46.40
2019-03-28T23:25:05.766Z,46.90
2019-03-28T23:27:34.319Z,46.30
2019-03-28T23:30:03.082Z,50.57
2019-03-28T23:32:31.712Z,45.87
2019-03-28T23:35:00.419Z,50.40
2019-03-28T23:37:28.839Z,45.93
2019-03-28T23:39:57.274Z,45.60
2019-03-28T23:42:25.696Z,49.70
2019-03-28T23:44:54.142Z,45.03
2019-03-28T23:47:22.551Z,43.93
2019-03-28T23:49:50.992Z,46.20
2019-03-28T23:52:19.404Z,48.90
2019-03-28T23:54:47.826Z,44.80
2019-03-28T23:57:16.279Z,46.20
2019-03-28T23:59:44.686Z,47.10
